Latest Weather Observations for Mangalore

IDV60801

Issued at 6:31 pm EST Saturday 23 May 2015 (issued every 30 minutes, with the page automatically refreshed every 10 minutes)

About weather observations | Map of weather stations | Latest weather observations for VIC | Other Formats
Station Details ID: 088109 Name: MANGALORE AIRPORT Lat: -36.89 Lon: 145.19 Height: 140.8 m
Data from the previous 72 hours. | See also: Recent months at Mangalore
Date/Time
EST
Temp
°C
App
Temp
°C
Dew
Point
Rel
Hum
%
Delta-T
°C
Wind Press
QNH
hPa
Press
MSL
hPa
Rain
since 9 am
mm
Dir
 
Spd
km/h
Gust
km/h
Spd
kts
Gust
kts
23/06:30pm 9.3 6.4 4.7 73 2.0 SSW 9 11 5 6 1030.3 1030.4 0.0
23/06:00pm 10.1 7.3 5.1 71 2.3 SSW 9 13 5 7 1030.2 1030.3 0.0
23/05:30pm 11.0 7.8 5.1 67 2.7 SSW 11 15 6 8 1030.1 1030.2 0.0
23/05:00pm 12.3 9.2 5.5 63 3.2 SW 11 15 6 8 1030.0 1030.1 0.0
23/04:30pm 13.0 9.9 5.7 61 3.5 SW 11 17 6 9 1029.9 1030.0 0.0
23/04:00pm 14.1 10.2 5.5 56 4.1 SW 15 22 8 12 1029.9 1030.0 0.0
23/03:30pm 14.9 10.6 5.4 53 4.5 WSW 17 20 9 11 1029.9 1030.0 0.0
23/03:00pm 15.8 12.3 5.4 50 5.0 SW 13 19 7 10 1029.7 1029.8 0.0
23/02:30pm 15.6 12.1 5.5 51 4.9 SSW 13 19 7 10 1029.7 1029.8 0.0
23/02:00pm 15.0 11.3 4.4 49 4.9 SSW 13 20 7 11 1029.9 1030.0 0.0
23/01:30pm 14.7 10.9 4.1 49 4.9 S 13 19 7 10 1030.0 1030.1 0.0
23/01:00pm 13.8 10.3 3.6 50 4.6 SSE 11 17 6 9 1030.4 1030.5 0.0
23/12:30pm 13.6 10.2 3.9 52 4.4 S 11 19 6 10 1030.7 1030.8 0.0
23/12:00pm 13.1 9.3 4.0 54 4.1 S 13 20 7 11 1031.2 1031.3 0.0
23/11:30am 12.6 7.7 4.3 57 3.8 S 19 24 10 13 1031.6 1031.8 0.0
23/11:00am 12.1 7.7 4.6 60 3.4 S 17 22 9 12 1032.1 1032.3 0.0
23/10:30am 10.9 6.7 3.7 61 3.2 SSW 15 19 8 10 1032.3 1032.5 0.0
23/10:00am 10.4 6.2 3.9 64 2.9 S 15 20 8 11 1032.2 1032.4 0.0
23/09:30am 9.5 5.0 4.3 70 2.3 S 17 26 9 14 1032.1 1032.3 0.0
23/09:00am 8.8 5.8 4.2 73 2.0 S 9 15 5 8 1032.1 1032.3 0.0
23/08:30am 7.7 4.7 4.3 79 1.5 SSW 9 15 5 8 1031.9 1032.1 0.0
23/08:00am 6.5 3.0 3.3 80 1.3 SSW 11 13 6 7 1031.6 1031.8 0.0
23/07:30am 6.0 2.4 3.0 81 1.3 SW 11 13 6 7 1031.4 1031.6 0.0
23/07:00am 6.0 2.4 3.0 81 1.2 SW 11 13 6 7 1031.0 1031.1 0.0
23/06:30am 5.6 2.3 2.4 80 1.3 S 9 13 5 7 1030.7 1030.8 0.0
23/06:00am 5.7 2.9 3.0 83 1.1 S 7 11 4 6 1030.5 1030.6 0.0
23/05:30am 5.7 3.2 3.9 88 0.8 S 6 9 3 5 1030.5 1030.6 0.0
23/05:00am 6.5 3.9 4.0 84 1.1 S 7 9 4 5 1030.3 1030.4 0.0
23/04:30am 5.6 2.8 3.1 84 1.0 S 7 9 4 5 1030.0 1030.1 0.0
23/04:00am 6.9 3.0 3.3 78 1.5 S 13 17 7 9 1029.9 1030.0 0.0
23/03:30am 7.4 4.3 3.5 76 1.7 SSE 9 15 5 8 1030.0 1030.1 0.0
23/03:00am 7.5 4.0 3.6 76 1.7 S 11 17 6 9 1030.0 1030.1 0.0
23/02:30am 7.8 5.3 3.8 76 1.7 S 6 9 3 5 1030.3 1030.4 0.0
23/02:00am 7.6 4.1 3.5 75 1.7 S 11 17 6 9 1030.3 1030.4 0.0
23/01:30am 8.8 3.7 4.0 72 2.1 S 20 30 11 16 1030.2 1030.3 0.0
23/01:00am 8.6 3.7 4.0 73 2.0 S 19 24 10 13 1030.3 1030.4 0.0
23/12:30am 8.8 3.3 4.0 72 2.1 S 22 30 12 16 1030.3 1030.4 0.0
23/12:00am 8.1 3.9 3.8 74 1.9 S 15 26 8 14 1030.5 1030.6 0.0
 
Date/Time
EST
Temp
°C
App
Temp
°C
Dew
Point
Rel
Hum
%
Delta-T
°C
Wind Press
QNH
hPa
Press
MSL
hPa
Rain
since 9 am
mm
Dir
 
Spd
km/h
Gust
km/h
Spd
kts
Gust
kts
22/11:30pm 7.9 4.4 3.6 74 1.9 SSW 11 15 6 8 1030.4 1030.5 0.0
22/11:00pm 7.5 5.3 3.2 74 1.8 S 4 7 2 4 1030.5 1030.6 0.0
22/10:30pm 8.3 4.4 3.6 72 2.0 SSW 13 19 7 10 1030.7 1030.8 0.0
22/10:00pm 8.3 4.0 3.4 71 2.1 S 15 19 8 10 1030.6 1030.7 0.0
22/09:30pm 8.8 3.8 3.6 70 2.3 SSE 19 24 10 13 1030.4 1030.5 0.0
22/09:00pm 9.6 4.1 3.8 67 2.5 SSE 22 32 12 17 1030.4 1030.5 0.0
22/08:30pm 9.6 5.1 4.2 69 2.4 S 17 22 9 12 1030.2 1030.3 0.0
22/08:00pm 9.7 4.8 4.3 69 2.4 S 19 24 10 13 1029.9 1030.0 0.0
22/07:30pm 10.2 4.8 4.4 67 2.6 SSE 22 32 12 17 1029.7 1029.8 0.0
22/07:00pm 10.9 4.7 4.1 63 3.0 S 26 39 14 21 1029.3 1029.4 0.0
22/06:30pm 11.3 2.5 3.8 60 3.4 SSE 39 50 21 27 1028.8 1028.9 0.0
22/06:24pm 11.4 4.0 4.2 61 3.3 SSE 32 50 17 27 1028.8 1028.9 0.0
22/06:21pm 11.2 4.6 4.2 62 3.2 SSE 28 44 15 24 1028.9 1029.0 0.0
22/06:00pm 11.1 6.2 4.3 63 3.0 S 19 26 10 14 1029.0 1029.1 0.0
22/05:30pm 11.7 5.6 4.7 62 3.2 S 26 37 14 20 1028.7 1028.8 0.0
22/05:00pm 11.9 4.9 4.2 59 3.5 S 30 50 16 27 1028.4 1028.5 0.0
22/04:53pm 12.3 4.9 4.0 57 3.8 S 32 50 17 27 1028.4 1028.5 0.0
22/04:30pm 12.8 5.3 4.3 56 3.9 SSE 33 46 18 25 1028.1 1028.2 0.0
22/04:21pm 12.9 6.3 4.1 55 4.0 S 28 46 15 25 1028.2 1028.3 0.0
22/04:00pm 13.4 5.8 4.0 53 4.3 S 33 43 18 23 1028.0 1028.1 0.0
22/03:30pm 13.9 6.0 4.5 53 4.4 SSE 35 44 19 24 1027.7 1027.8 0.0
22/03:00pm 14.7 8.2 4.7 51 4.7 SSE 28 35 15 19 1027.2 1027.3 0.0
22/02:30pm 15.0 8.1 4.4 49 5.0 SSE 30 37 16 20 1027.2 1027.3 0.0
22/02:00pm 14.9 7.5 4.0 48 5.0 SSE 32 41 17 22 1027.0 1027.1 0.0
22/01:30pm 15.0 7.6 3.8 47 5.2 S 32 39 17 21 1027.0 1027.1 0.0
22/01:00pm 15.0 7.4 3.8 47 5.1 SSE 33 46 18 25 1027.0 1027.1 0.0
22/12:30pm 15.0 7.7 4.4 49 5.0 S 32 39 17 21 1027.1 1027.2 0.0
22/12:00pm 14.7 7.3 4.1 49 4.9 S 32 48 17 26 1027.3 1027.4 0.0
22/11:48am 14.7 7.3 4.1 49 4.9 SSE 32 50 17 27 1027.4 1027.5 0.0
22/11:30am 14.1 5.3 3.8 50 4.7 S 39 52 21 28 1027.5 1027.6 0.0
22/11:00am 13.7 5.4 4.0 52 4.4 SSE 37 46 20 25 1027.8 1027.9 0.0
22/10:33am 13.4 5.9 4.3 54 4.2 SSE 33 52 18 28 1027.7 1027.8 0.0
22/10:30am 13.5 5.2 4.4 54 4.2 SSE 37 52 20 28 1027.6 1027.7 0.0
22/10:00am 12.9 5.5 4.1 55 4.0 SSE 32 46 17 25 1027.7 1027.8 0.0
22/09:30am 12.3 6.2 4.8 60 3.5 S 26 35 14 19 1027.5 1027.6 0.0
22/09:19am 12.0 5.6 5.0 62 3.2 SSE 28 35 15 19 1027.6 1027.7 0.0
22/09:00am 11.0 7.7 6.4 73 2.2 SSW 13 15 7 8 1027.7 1027.8 0.0
22/08:30am 10.1 6.4 6.4 78 1.7 SSW 15 19 8 10 1027.4 1027.5 0.0
22/08:00am 9.1 6.1 6.2 82 1.3 SSW 11 17 6 9 1027.2 1027.3 0.0
22/07:30am 9.4 5.8 5.2 75 1.9 SSW 13 20 7 11 1026.8 1026.9 0.0
22/07:00am 10.3 5.1 5.7 73 2.1 S 22 30 12 16 1025.9 1026.1 0.0
22/06:30am 10.5 5.0 6.1 74 2.1 S 24 32 13 17 1025.4 1025.6 0.0
22/06:00am 10.1 6.4 6.4 78 1.7 SSE 15 22 8 12 1025.2 1025.3 0.0
22/05:30am 7.3 4.6 5.6 89 0.8 SW 9 13 5 7 1025.0 1025.1 0.0
22/05:00am 8.4 6.5 6.5 88 0.9 SSE 6 9 3 5 1024.9 1025.0 0.0
22/04:30am 8.2 4.3 7.0 92 0.6 SSE 17 19 9 10 1024.6 1024.7 0.0
22/04:00am 8.4 5.4 7.5 94 0.4 S 13 15 7 8 1024.5 1024.6 0.0
22/03:30am 8.3 6.3 6.9 91 0.7 S 7 9 4 5 1024.6 1024.7 0.0
22/03:00am 8.9 6.5 7.2 89 0.8 S 9 13 5 7 1024.6 1024.7 0.0
22/02:30am 9.5 7.2 7.3 86 1.0 S 9 13 5 7 1024.5 1024.6 0.0
22/02:00am 10.4 7.0 7.8 84 1.3 SSW 15 19 8 10 1024.2 1024.3 0.0
22/01:30am 10.3 6.6 7.9 85 1.2 S 17 22 9 12 1024.1 1024.2 0.0
22/01:00am 10.3 7.3 7.7 84 1.3 SSW 13 19 7 10 1024.0 1024.1 0.0
22/12:30am 10.4 8.2 8.0 85 1.2 SW 9 13 5 7 1023.9 1024.0 0.0
22/12:00am 10.7 8.3 8.5 86 1.1 SW 11 15 6 8 1023.9 1024.0 0.0
 
Date/Time
EST
Temp
°C
App
Temp
°C
Dew
Point
Rel
Hum
%
Delta-T
°C
Wind Press
QNH
hPa
Press
MSL
hPa
Rain
since 9 am
mm
Dir
 
Spd
km/h
Gust
km/h
Spd
kts
Gust
kts
21/11:30pm 10.6 9.1 8.4 86 1.1 S 6 11 3 6 1023.7 1023.8 0.0
21/11:00pm 10.6 7.8 8.4 86 1.1 SSW 13 20 7 11 1023.8 1023.9 0.0
21/10:30pm 10.4 7.1 8.0 85 1.2 SSW 15 19 8 10 1023.8 1023.9 0.0
21/10:00pm 10.4 6.2 7.6 83 1.3 S 19 24 10 13 1023.8 1023.9 0.0
21/09:30pm 10.7 5.3 6.5 75 2.0 S 24 30 13 16 1023.7 1023.8 0.0
21/09:00pm 10.5 5.1 6.5 76 1.9 SSE 24 30 13 16 1023.6 1023.7 0.0
21/08:30pm 10.9 5.2 6.6 75 2.0 SSE 26 33 14 18 1023.2 1023.3 0.0
21/08:00pm 11.1 5.8 6.8 75 2.0 SSE 24 32 13 17 1023.2 1023.3 0.0
21/07:30pm 10.4 8.0 6.9 79 1.7 S 9 13 5 7 1023.2 1023.3 0.0
21/07:00pm 10.4 7.6 6.9 79 1.7 SSW 11 15 6 8 1023.0 1023.1 0.0
21/06:30pm 11.1 6.8 7.0 76 2.0 S 19 24 10 13 1022.8 1022.9 0.0
21/06:00pm 11.7 8.5 6.8 72 2.3 S 13 19 7 10 1022.7 1022.8 0.0
21/05:30pm 12.1 6.8 6.8 70 2.6 S 24 32 13 17 1022.4 1022.5 0.0
21/05:00pm 12.5 7.2 6.8 68 2.7 SSE 24 35 13 19 1022.2 1022.3 0.0
21/04:30pm 12.8 7.5 6.6 66 3.0 S 24 32 13 17 1022.0 1022.1 0.0
21/04:00pm 13.0 6.9 6.6 65 3.1 S 28 35 15 19 1021.8 1021.9 0.0
21/03:30pm 13.5 8.2 6.6 63 3.3 S 24 33 13 18 1021.7 1021.8 0.0
21/03:00pm 13.2 7.5 6.5 64 3.2 S 26 35 14 19 1021.5 1021.6 0.0
21/02:30pm 14.4 8.8 7.2 62 3.6 S 26 35 14 19 1021.4 1021.5 0.0
21/02:00pm 13.5 7.3 6.1 61 3.5 SSE 28 37 15 20 1021.5 1021.6 0.0
21/01:30pm 14.1 8.3 6.2 59 3.8 S 26 33 14 18 1021.5 1021.6 0.0
21/01:00pm 14.3 9.0 6.9 61 3.6 SSE 24 33 13 18 1021.8 1021.9 0.0
21/12:30pm 13.9 8.2 6.5 61 3.6 SSE 26 35 14 19 1022.1 1022.2 0.0
21/12:00pm 13.8 7.7 6.7 62 3.4 SSE 28 39 15 21 1022.4 1022.5 0.0
21/11:30am 13.5 7.7 6.4 62 3.4 SSE 26 35 14 19 1022.7 1022.8 0.0
21/11:00am 13.6 8.1 7.4 66 3.0 S 26 33 14 18 1022.8 1022.9 0.0
21/10:30am 12.7 7.5 7.2 69 2.7 S 24 32 13 17 1022.6 1022.7 0.0
21/10:00am 11.6 5.9 6.5 71 2.4 S 26 37 14 20 1022.5 1022.6 0.0
21/09:30am 11.6 6.7 6.7 72 2.3 SSE 22 32 12 17 1022.3 1022.4 0.0
21/09:00am 10.9 6.6 7.0 77 1.9 S 19 26 10 14 1022.2 1022.3 0.0
21/08:30am 9.7 7.4 7.3 85 1.1 SSW 9 13 5 7 1021.9 1022.0 0.0
21/08:00am 8.4 6.0 7.2 92 0.6 SSW 9 15 5 8 1021.3 1021.4 0.0
21/07:30am 8.2 5.4 7.0 92 0.6 SSW 11 17 6 9 1021.0 1021.1 0.0
21/07:00am 8.3 5.2 7.1 92 0.6 SSW 13 20 7 11 1020.6 1020.7 0.0
21/06:30am 8.4 5.3 7.2 92 0.6 SSW 13 17 7 9 1020.2 1020.3 0.0
21/06:00am 8.2 5.4 6.8 91 0.7 SSW 11 17 6 9 1020.1 1020.2 0.0
21/05:30am 8.5 5.4 7.1 91 0.7 SSW 13 17 7 9 1019.9 1020.0 0.0
21/05:00am 8.7 5.5 7.0 89 0.8 SSW 13 20 7 11 1019.6 1019.7 0.0
21/04:30am 8.9 5.3 6.9 87 0.9 SSW 15 20 8 11 1019.4 1019.5 0.0
21/04:00am 9.2 5.3 7.0 86 1.0 SSW 17 24 9 13 1019.2 1019.2 0.0
21/03:30am 9.5 5.6 6.9 84 1.2 SSW 17 26 9 14 1019.2 1019.2 0.0
21/03:00am 10.1 6.2 7.2 82 1.4 SSW 17 26 9 14 1019.3 1019.3 0.0
21/02:30am 10.1 6.7 7.7 85 1.2 SSW 15 20 8 11 1019.3 1019.3 0.0
21/02:00am 10.2 6.5 7.8 85 1.2 SSW 17 22 9 12 1019.1 1019.1 0.0
21/01:30am 10.5 6.2 7.9 84 1.3 SSW 20 28 11 15 1019.0 1019.0 0.0
21/01:00am 10.7 5.7 7.9 83 1.4 SSW 24 33 13 18 1018.8 1018.8 0.0
21/12:30am 10.7 6.5 8.3 85 1.2 SSW 20 32 11 17 1018.6 1018.7 0.0
21/12:00am 10.7 7.1 8.5 86 1.1 SSW 17 26 9 14 1018.5 1018.6 0.0
 
Date/Time
EST
Temp
°C
App
Temp
°C
Dew
Point
Rel
Hum
%
Delta-T
°C
Wind Press
QNH
hPa
Press
MSL
hPa
Rain
since 9 am
mm
Dir
 
Spd
km/h
Gust
km/h
Spd
kts
Gust
kts
20/11:30pm 11.1 7.0 8.5 84 1.3 SSW 20 32 11 17 1018.4 1018.5 0.0
20/11:00pm 11.4 7.4 9.1 86 1.2 SSW 20 28 11 15 1018.2 1018.3 0.0
20/10:30pm 11.5 7.8 10.1 91 0.7 SSW 20 32 11 17 1018.1 1018.2 0.0
20/10:00pm 11.3 9.6 11.1 99 0.1 SW 11 19 6 10 1018.1 1018.2 0.0
20/09:30pm 10.9 9.4 10.7 99 0.1 N 9 13 5 7 1017.9 1018.0 0.0
20/09:21pm 11.2 9.8 11.0 99 0.1 NNE 9 11 5 6 1017.8 1017.9 0.0
20/09:01pm 10.2 8.9 10.0 99 0.1 NNE 7 9 4 5 1017.6 1017.7 0.0
20/09:00pm 10.3 9.0 10.1 99 0.1 NNE 7 9 4 5 1017.6 1017.7 0.0
20/08:57pm 10.8 9.7 10.6 99 0.1 NNE 7 9 4 5 1017.6 1017.7 0.0
20/08:30pm 11.5 10.6 11.3 99 0.1 NNE 7 7 4 4 1017.3 1017.4 0.0
20/08:00pm 11.6 10.3 11.1 97 0.3 NNE 9 11 5 6 1017.0 1017.1 0.0
20/07:48pm 12.0 10.7 11.4 96 0.3 NNE 9 11 5 6 1016.8 1016.9 0.0
20/07:40pm 12.1 10.8 11.3 95 0.4 NNE 9 11 5 6 1016.7 1016.8 0.0
20/07:32pm 12.2 10.9 11.3 94 0.5 NNE 9 11 5 6 1016.6 1016.7 0.0
20/07:30pm 12.2 10.9 11.3 94 0.5 NNE 9 11 5 6 1016.6 1016.7 0.0
20/07:12pm 12.3 10.5 10.7 90 0.8 NNE 11 17 6 9 1016.3 1016.4 0.0
20/07:00pm 12.4 10.9 10.5 88 1.0 NNE 9 15 5 8 1016.2 1016.3 0.0

Other Formats:

Comma delimited format used in spreadsheet applications
http://www.bom.gov.au/fwo/IDV60801/IDV60801.94874.axf

JavaScript Object Notation format (JSON) in row-major order
http://www.bom.gov.au/fwo/IDV60801/IDV60801.94874.json